sensor_id;sensor_type;location;lat;lon;timestamp;pressure;altitude;pressure_sealevel;temperature;humidity
50105;BME280;47690;39.202;-77.198;2024-02-21T00:01:30;101444.06;;;8.91;34.07
50105;BME280;47690;39.202;-77.198;2024-02-21T00:04:00;101446.56;;;8.85;34.14
50105;BME280;47690;39.202;-77.198;2024-02-21T00:06:30;101448.22;;;8.80;34.23
50105;BME280;47690;39.202;-77.198;2024-02-21T00:08:59;101445.56;;;8.72;34.53
50105;BME280;47690;39.202;-77.198;2024-02-21T00:11:29;101453.19;;;8.67;34.53
50105;BME280;47690;39.202;-77.198;2024-02-21T00:13:58;101458.28;;;8.63;34.40
50105;BME280;47690;39.202;-77.198;2024-02-21T00:16:28;101449.63;;;8.56;34.43
50105;BME280;47690;39.202;-77.198;2024-02-21T00:18:56;101456.38;;;8.51;34.79
50105;BME280;47690;39.202;-77.198;2024-02-21T00:21:24;101449.47;;;8.45;34.42
50105;BME280;47690;39.202;-77.198;2024-02-21T00:23:53;101455.38;;;8.41;34.58
50105;BME280;47690;39.202;-77.198;2024-02-21T00:26:21;101458.75;;;8.35;34.82
50105;BME280;47690;39.202;-77.198;2024-02-21T00:28:50;101449.25;;;8.29;34.54
50105;BME280;47690;39.202;-77.198;2024-02-21T00:31:20;101455.19;;;8.25;35.08
50105;BME280;47690;39.202;-77.198;2024-02-21T00:33:49;101454.28;;;8.20;34.70
50105;BME280;47690;39.202;-77.198;2024-02-21T00:36:18;101454.16;;;8.12;34.91
50105;BME280;47690;39.202;-77.198;2024-02-21T00:38:47;101455.78;;;8.05;34.82
50105;BME280;47690;39.202;-77.198;2024-02-21T00:41:16;101460.81;;;7.99;34.81
50105;BME280;47690;39.202;-77.198;2024-02-21T00:43:44;101457.34;;;7.96;35.02
50105;BME280;47690;39.202;-77.198;2024-02-21T00:46:13;101459.81;;;7.89;35.07
50105;BME280;47690;39.202;-77.198;2024-02-21T00:48:42;101449.41;;;7.82;34.95
50105;BME280;47690;39.202;-77.198;2024-02-21T00:51:10;101460.53;;;7.81;35.20
50105;BME280;47690;39.202;-77.198;2024-02-21T00:53:38;101457.00;;;7.74;35.44
50105;BME280;47690;39.202;-77.198;2024-02-21T00:56:07;101463.75;;;7.69;34.82
50105;BME280;47690;39.202;-77.198;2024-02-21T00:58:35;101461.06;;;7.61;35.40
50105;BME280;47690;39.202;-77.198;2024-02-21T01:01:04;101465.28;;;7.59;35.32
50105;BME280;47690;39.202;-77.198;2024-02-21T01:03:34;101466.06;;;7.53;35.47
50105;BME280;47690;39.202;-77.198;2024-02-21T01:06:04;101465.06;;;7.45;35.39
50105;BME280;47690;39.202;-77.198;2024-02-21T01:08:34;101476.09;;;7.39;35.45
50105;BME280;47690;39.202;-77.198;2024-02-21T01:11:03;101479.38;;;7.33;35.51
50105;BME280;47690;39.202;-77.198;2024-02-21T01:13:33;101477.50;;;7.23;35.74
50105;BME280;47690;39.202;-77.198;2024-02-21T01:16:01;101474.81;;;7.17;35.62
50105;BME280;47690;39.202;-77.198;2024-02-21T01:18:36;101484.09;;;7.10;35.36
50105;BME280;47690;39.202;-77.198;2024-02-21T01:21:07;101476.25;;;7.02;35.87
50105;BME280;47690;39.202;-77.198;2024-02-21T01:23:36;101482.13;;;6.96;35.86
50105;BME280;47690;39.202;-77.198;2024-02-21T01:26:05;101481.97;;;6.89;36.06
50105;BME280;47690;39.202;-77.198;2024-02-21T01:28:36;101487.88;;;6.85;36.09
50105;BME280;47690;39.202;-77.198;2024-02-21T01:31:07;101486.91;;;6.79;35.80
50105;BME280;47690;39.202;-77.198;2024-02-21T01:33:37;101484.22;;;6.73;35.88
50105;BME280;47690;39.202;-77.198;2024-02-21T01:36:07;101492.63;;;6.67;36.12
50105;BME280;47690;39.202;-77.198;2024-02-21T01:38:35;101495.06;;;6.61;36.07
50105;BME280;47690;39.202;-77.198;2024-02-21T01:41:04;101496.66;;;6.56;35.82
50105;BME280;47690;39.202;-77.198;2024-02-21T01:43:34;101502.50;;;6.50;36.35
50105;BME280;47690;39.202;-77.198;2024-02-21T01:46:04;101494.72;;;6.46;36.28
50105;BME280;47690;39.202;-77.198;2024-02-21T01:48:34;101489.47;;;6.39;36.40
50105;BME280;47690;39.202;-77.198;2024-02-21T01:51:04;101502.22;;;6.38;36.29
50105;BME280;47690;39.202;-77.198;2024-02-21T01:53:43;101512.31;;;6.30;36.58
50105;BME280;47690;39.202;-77.198;2024-02-21T01:56:12;101506.84;;;6.16;36.64
50105;BME280;47690;39.202;-77.198;2024-02-21T01:58:42;101512.59;;;6.06;36.83
50105;BME280;47690;39.202;-77.198;2024-02-21T02:01:11;101515.69;;;5.94;36.79
50105;BME280;47690;39.202;-77.198;2024-02-21T02:03:42;101507.00;;;5.87;37.08
50105;BME280;47690;39.202;-77.198;2024-02-21T02:06:13;101506.84;;;5.81;37.14
50105;BME280;47690;39.202;-77.198;2024-02-21T02:08:42;101517.81;;;5.77;36.88
50105;BME280;47690;39.202;-77.198;2024-02-21T02:11:12;101509.25;;;5.74;37.47
50105;BME280;47690;39.202;-77.198;2024-02-21T02:13:42;101513.47;;;5.72;37.22
50105;BME280;47690;39.202;-77.198;2024-02-21T02:16:10;101520.19;;;5.69;36.82
50105;BME280;47690;39.202;-77.198;2024-02-21T02:18:39;101516.72;;;5.67;36.94
50105;BME280;47690;39.202;-77.198;2024-02-21T02:21:13;101526.16;;;5.69;37.39
50105;BME280;47690;39.202;-77.198;2024-02-21T02:23:42;101524.38;;;5.67;36.99
50105;BME280;47690;39.202;-77.198;2024-02-21T02:26:11;101520.03;;;5.63;36.93
50105;BME280;47690;39.202;-77.198;2024-02-21T02:28:39;101518.31;;;5.62;37.30
50105;BME280;47690;39.202;-77.198;2024-02-21T02:31:07;101519.94;;;5.59;37.42
50105;BME280;47690;39.202;-77.198;2024-02-21T02:33:39;101519.09;;;5.59;36.94
50105;BME280;47690;39.202;-77.198;2024-02-21T02:36:10;101519.88;;;5.56;37.00
50105;BME280;47690;39.202;-77.198;2024-02-21T02:38:39;101525.81;;;5.55;37.59
50105;BME280;47690;39.202;-77.198;2024-02-21T02:41:07;101527.38;;;5.50;37.23
50105;BME280;47690;39.202;-77.198;2024-02-21T02:43:35;101535.88;;;5.49;37.04
50105;BME280;47690;39.202;-77.198;2024-02-21T02:46:04;101534.91;;;5.45;37.10
50105;BME280;47690;39.202;-77.198;2024-02-21T02:48:35;101543.38;;;5.43;37.83
50105;BME280;47690;39.202;-77.198;2024-02-21T02:51:04;101541.53;;;5.39;37.93
50105;BME280;47690;39.202;-77.198;2024-02-21T02:53:34;101543.19;;;5.37;37.66
50105;BME280;47690;39.202;-77.198;2024-02-21T02:56:05;101549.00;;;5.31;37.88
50105;BME280;47690;39.202;-77.198;2024-02-21T02:58:35;101544.59;;;5.25;37.42
50105;BME280;47690;39.202;-77.198;2024-02-21T03:01:08;101547.94;;;5.23;37.58
50105;BME280;47690;39.202;-77.198;2024-02-21T03:03:43;101546.97;;;5.19;37.63
50105;BME280;47690;39.202;-77.198;2024-02-21T03:06:16;101541.69;;;5.13;37.64
50105;BME280;47690;39.202;-77.198;2024-02-21T03:08:46;101544.91;;;5.05;38.34
50105;BME280;47690;39.202;-77.198;2024-02-21T03:11:17;101539.56;;;4.98;37.70
50105;BME280;47690;39.202;-77.198;2024-02-21T03:13:49;101542.09;;;4.96;37.80
50105;BME280;47690;39.202;-77.198;2024-02-21T03:16:19;101542.94;;;4.97;38.01
50105;BME280;47690;39.202;-77.198;2024-02-21T03:18:48;101542.94;;;4.97;38.19
50105;BME280;47690;39.202;-77.198;2024-02-21T03:21:18;101545.47;;;4.97;38.51
50105;BME280;47690;39.202;-77.198;2024-02-21T03:23:47;101547.19;;;4.96;37.85
50105;BME280;47690;39.202;-77.198;2024-02-21T03:26:15;101549.69;;;4.95;38.03
50105;BME280;47690;39.202;-77.198;2024-02-21T03:28:45;101540.25;;;4.92;38.31
50105;BME280;47690;39.202;-77.198;2024-02-21T03:31:16;101545.16;;;4.86;38.30
50105;BME280;47690;39.202;-77.198;2024-02-21T03:33:46;101534.81;;;4.81;37.96
50105;BME280;47690;39.202;-77.198;2024-02-21T03:36:15;101541.59;;;4.79;38.21
50105;BME280;47690;39.202;-77.198;2024-02-21T03:38:44;101538.78;;;4.71;38.13
50105;BME280;47690;39.202;-77.198;2024-02-21T03:41:13;101544.63;;;4.67;38.14
50105;BME280;47690;39.202;-77.198;2024-02-21T03:43:41;101538.53;;;4.62;38.35
50105;BME280;47690;39.202;-77.198;2024-02-21T03:46:10;101545.22;;;4.58;38.67
50105;BME280;47690;39.202;-77.198;2024-02-21T03:48:39;101542.59;;;4.57;38.38
50105;BME280;47690;39.202;-77.198;2024-02-21T03:51:09;101537.34;;;4.50;38.33
50105;BME280;47690;39.202;-77.198;2024-02-21T03:53:37;101543.16;;;4.46;38.23
50105;BME280;47690;39.202;-77.198;2024-02-21T03:56:06;101545.63;;;4.43;38.29
50105;BME280;47690;39.202;-77.198;2024-02-21T03:58:36;101537.84;;;4.40;38.61
50105;BME280;47690;39.202;-77.198;2024-02-21T04:01:05;101534.34;;;4.36;38.55
50105;BME280;47690;39.202;-77.198;2024-02-21T04:03:34;101547.09;;;4.36;39.05
50105;BME280;47690;39.202;-77.198;2024-02-21T04:06:04;101550.53;;;4.37;38.88
50105;BME280;47690;39.202;-77.198;2024-02-21T04:08:34;101546.25;;;4.36;38.19
50105;BME280;47690;39.202;-77.198;2024-02-21T04:11:04;101553.84;;;4.34;38.76
50105;BME280;47690;39.202;-77.198;2024-02-21T04:13:34;101557.22;;;4.33;39.32
50105;BME280;47690;39.202;-77.198;2024-02-21T04:16:05;101564.06;;;4.34;39.30
50105;BME280;47690;39.202;-77.198;2024-02-21T04:18:35;101565.78;;;4.35;39.12
50105;BME280;47690;39.202;-77.198;2024-02-21T04:21:05;101565.78;;;4.35;39.23
50105;BME280;47690;39.202;-77.198;2024-02-21T04:23:34;101573.44;;;4.35;39.35
50105;BME280;47690;39.202;-77.198;2024-02-21T04:26:04;101576.03;;;4.37;39.29
50105;BME280;47690;39.202;-77.198;2024-02-21T04:28:35;101579.38;;;4.34;38.80
50105;BME280;47690;39.202;-77.198;2024-02-21T04:31:07;101579.31;;;4.33;39.27
50105;BME280;47690;39.202;-77.198;2024-02-21T04:33:38;101575.78;;;4.29;39.91
50105;BME280;47690;39.202;-77.198;2024-02-21T04:36:06;101585.16;;;4.29;38.97
50105;BME280;47690;39.202;-77.198;2024-02-21T04:38:35;101579.91;;;4.26;39.10
50105;BME280;47690;39.202;-77.198;2024-02-21T04:41:04;101591.75;;;4.23;39.36
50105;BME280;47690;39.202;-77.198;2024-02-21T04:43:34;101584.94;;;4.22;39.00
50105;BME280;47690;39.202;-77.198;2024-02-21T04:46:04;101588.44;;;4.26;39.93
50105;BME280;47690;39.202;-77.198;2024-02-21T04:48:34;101591.91;;;4.28;39.79
50105;BME280;47690;39.202;-77.198;2024-02-21T04:51:06;101594.47;;;4.28;39.33
50105;BME280;47690;39.202;-77.198;2024-02-21T04:53:35;101590.13;;;4.26;39.89
50105;BME280;47690;39.202;-77.198;2024-02-21T04:56:05;101593.56;;;4.26;39.88
50105;BME280;47690;39.202;-77.198;2024-02-21T04:58:38;101596.09;;;4.26;39.61
50105;BME280;47690;39.202;-77.198;2024-02-21T05:01:07;101606.31;;;4.26;39.71
50105;BME280;47690;39.202;-77.198;2024-02-21T05:03:35;101604.59;;;4.27;39.61
50105;BME280;47690;39.202;-77.198;2024-02-21T05:06:04;101602.03;;;4.25;39.99
50105;BME280;47690;39.202;-77.198;2024-02-21T05:08:36;101606.16;;;4.21;39.92
50105;BME280;47690;39.202;-77.198;2024-02-21T05:11:05;101607.84;;;4.21;39.61
50105;BME280;47690;39.202;-77.198;2024-02-21T05:13:34;101610.31;;;4.19;39.98
50105;BME280;47690;39.202;-77.198;2024-02-21T05:16:05;101608.59;;;4.18;39.92
50105;BME280;47690;39.202;-77.198;2024-02-21T05:18:34;101607.63;;;4.15;39.78
50105;BME280;47690;39.202;-77.198;2024-02-21T05:21:04;101611.00;;;4.14;39.79
50105;BME280;47690;39.202;-77.198;2024-02-21T05:23:34;101613.47;;;4.12;40.38
50105;BME280;47690;39.202;-77.198;2024-02-21T05:26:05;101616.03;;;4.12;40.21
50105;BME280;47690;39.202;-77.198;2024-02-21T05:28:34;101608.28;;;4.09;39.76
50105;BME280;47690;39.202;-77.198;2024-02-21T05:31:05;101616.03;;;4.12;39.89
50105;BME280;47690;39.202;-77.198;2024-02-21T05:33:35;101622.00;;;4.13;39.98
50105;BME280;47690;39.202;-77.198;2024-02-21T05:36:05;101612.66;;;4.13;40.04
50105;BME280;47690;39.202;-77.198;2024-02-21T05:38:34;101604.94;;;4.10;40.48
50105;BME280;47690;39.202;-77.198;2024-02-21T05:41:04;101603.19;;;4.09;40.70
50105;BME280;47690;39.202;-77.198;2024-02-21T05:43:37;101609.19;;;4.11;41.24
50105;BME280;47690;39.202;-77.198;2024-02-21T05:46:06;101603.13;;;4.07;40.55
50105;BME280;47690;39.202;-77.198;2024-02-21T05:48:34;101597.94;;;4.04;40.13
50105;BME280;47690;39.202;-77.198;2024-02-21T05:51:06;101604.72;;;4.04;40.21
50105;BME280;47690;39.202;-77.198;2024-02-21T05:53:37;101608.00;;;4.00;40.11
50105;BME280;47690;39.202;-77.198;2024-02-21T05:56:12;101611.38;;;3.99;40.33
50105;BME280;47690;39.202;-77.198;2024-02-21T05:58:41;101603.53;;;3.94;40.05
50105;BME280;47690;39.202;-77.198;2024-02-21T06:01:10;101615.16;;;3.86;39.68
50105;BME280;47690;39.202;-77.198;2024-02-21T06:03:38;101617.44;;;3.78;39.95
50105;BME280;47690;39.202;-77.198;2024-02-21T06:06:07;101618.88;;;3.69;40.35
50105;BME280;47690;39.202;-77.198;2024-02-21T06:08:35;101621.19;;;3.63;40.63
50105;BME280;47690;39.202;-77.198;2024-02-21T06:11:05;101616.03;;;3.62;41.14
50105;BME280;47690;39.202;-77.198;2024-02-21T06:13:38;101626.97;;;3.59;41.12
50105;BME280;47690;39.202;-77.198;2024-02-21T06:16:09;101624.38;;;3.58;41.01
50105;BME280;47690;39.202;-77.198;2024-02-21T06:18:38;101619.25;;;3.58;40.72
50105;BME280;47690;39.202;-77.198;2024-02-21T06:21:08;101623.50;;;3.57;40.96
50105;BME280;47690;39.202;-77.198;2024-02-21T06:23:37;101631.16;;;3.57;40.68
50105;BME280;47690;39.202;-77.198;2024-02-21T06:26:05;101625.25;;;3.58;40.36
50105;BME280;47690;39.202;-77.198;2024-02-21T06:28:34;101626.06;;;3.57;40.86
50105;BME280;47690;39.202;-77.198;2024-02-21T06:31:15;101621.81;;;3.58;41.46
50105;BME280;47690;39.202;-77.198;2024-02-21T06:33:46;101628.47;;;3.54;41.03
50105;BME280;47690;39.202;-77.198;2024-02-21T06:36:14;101627.56;;;3.52;41.07
50105;BME280;47690;39.202;-77.198;2024-02-21T06:38:42;101622.31;;;3.47;40.87
50105;BME280;47690;39.202;-77.198;2024-02-21T06:41:18;101627.25;;;3.42;41.30
50105;BME280;47690;39.202;-77.198;2024-02-21T06:43:47;101624.47;;;3.36;40.85
50105;BME280;47690;39.202;-77.198;2024-02-21T06:46:27;101624.22;;;3.30;41.08
50105;BME280;47690;39.202;-77.198;2024-02-21T06:49:04;101625.56;;;3.20;41.14
50105;BME280;47690;39.202;-77.198;2024-02-21T06:51:34;101617.72;;;3.14;41.46
50105;BME280;47690;39.202;-77.198;2024-02-21T06:54:05;101627.03;;;3.13;41.50
50105;BME280;47690;39.202;-77.198;2024-02-21T06:56:34;101616.84;;;3.13;41.74
50105;BME280;47690;39.202;-77.198;2024-02-21T06:59:05;101621.94;;;3.13;41.61
50105;BME280;47690;39.202;-77.198;2024-02-21T07:01:34;101623.66;;;3.14;41.00
50105;BME280;47690;39.202;-77.198;2024-02-21T07:04:05;101621.00;;;3.11;41.15
50105;BME280;47690;39.202;-77.198;2024-02-21T07:06:36;101616.66;;;3.09;41.66
50105;BME280;47690;39.202;-77.198;2024-02-21T07:09:05;101614.81;;;3.05;41.19
50105;BME280;47690;39.202;-77.198;2024-02-21T07:11:34;101613.13;;;3.05;41.31
50105;BME280;47690;39.202;-77.198;2024-02-21T07:14:05;101619.16;;;3.07;42.13
50105;BME280;47690;39.202;-77.198;2024-02-21T07:16:34;101610.44;;;3.02;41.35
50105;BME280;47690;39.202;-77.198;2024-02-21T07:19:04;101611.91;;;2.95;41.78
50105;BME280;47690;39.202;-77.198;2024-02-21T07:21:34;101616.00;;;2.92;41.86
50105;BME280;47690;39.202;-77.198;2024-02-21T07:24:04;101609.25;;;2.92;42.21
50105;BME280;47690;39.202;-77.198;2024-02-21T07:26:36;101615.34;;;2.96;41.82
50105;BME280;47690;39.202;-77.198;2024-02-21T07:29:05;101607.69;;;2.96;41.85
50105;BME280;47690;39.202;-77.198;2024-02-21T07:31:42;101606.88;;;2.97;42.02
50105;BME280;47690;39.202;-77.198;2024-02-21T07:34:11;101599.25;;;2.97;41.62
50105;BME280;47690;39.202;-77.198;2024-02-21T07:36:40;101589.88;;;2.96;42.01
50105;BME280;47690;39.202;-77.198;2024-02-21T07:39:10;101594.03;;;2.94;42.05
50105;BME280;47690;39.202;-77.198;2024-02-21T07:41:39;101589.75;;;2.93;41.62
50105;BME280;47690;39.202;-77.198;2024-02-21T07:44:09;101581.19;;;2.91;41.94
50105;BME280;47690;39.202;-77.198;2024-02-21T07:46:38;101582.94;;;2.92;41.92
50105;BME280;47690;39.202;-77.198;2024-02-21T07:49:06;101580.38;;;2.92;41.66
50105;BME280;47690;39.202;-77.198;2024-02-21T07:51:35;101567.66;;;2.92;42.09
50105;BME280;47690;39.202;-77.198;2024-02-21T07:54:05;101565.91;;;2.91;41.74
50105;BME280;47690;39.202;-77.198;2024-02-21T07:56:36;101566.72;;;2.90;41.70
50105;BME280;47690;39.202;-77.198;2024-02-21T07:59:05;101561.50;;;2.86;41.67
50105;BME280;47690;39.202;-77.198;2024-02-21T08:01:36;101549.50;;;2.82;41.66
50105;BME280;47690;39.202;-77.198;2024-02-21T08:04:05;101555.34;;;2.80;42.06
50105;BME280;47690;39.202;-77.198;2024-02-21T08:06:34;101539.81;;;2.73;41.95
50105;BME280;47690;39.202;-77.198;2024-02-21T08:09:04;101544.00;;;2.71;41.91
50105;BME280;47690;39.202;-77.198;2024-02-21T08:11:34;101541.38;;;2.70;41.65
50105;BME280;47690;39.202;-77.198;2024-02-21T08:14:04;101542.78;;;2.62;41.56
50105;BME280;47690;39.202;-77.198;2024-02-21T08:16:35;101532.19;;;2.51;41.91
50105;BME280;47690;39.202;-77.198;2024-02-21T08:19:07;101536.38;;;2.50;41.88
50105;BME280;47690;39.202;-77.198;2024-02-21T08:21:35;101535.38;;;2.45;41.71
50105;BME280;47690;39.202;-77.198;2024-02-21T08:24:06;101531.88;;;2.43;42.27
50105;BME280;47690;39.202;-77.198;2024-02-21T08:26:43;101538.75;;;2.45;42.72
50105;BME280;47690;39.202;-77.198;2024-02-21T08:29:12;101531.19;;;2.47;42.34
50105;BME280;47690;39.202;-77.198;2024-02-21T08:31:42;101540.56;;;2.48;42.23
50105;BME280;47690;39.202;-77.198;2024-02-21T08:34:11;101536.19;;;2.44;41.95
50105;BME280;47690;39.202;-77.198;2024-02-21T08:36:41;101532.41;;;2.34;41.73
50105;BME280;47690;39.202;-77.198;2024-02-21T08:39:10;101534.75;;;2.29;42.30
50105;BME280;47690;39.202;-77.198;2024-02-21T08:41:39;101530.41;;;2.27;42.16
50105;BME280;47690;39.202;-77.198;2024-02-21T08:44:23;101526.31;;;2.30;42.39
50105;BME280;47690;39.202;-77.198;2024-02-21T08:46:56;101531.44;;;2.32;42.69
50105;BME280;47690;39.202;-77.198;2024-02-21T08:49:24;101532.44;;;2.36;42.51
50105;BME280;47690;39.202;-77.198;2024-02-21T08:52:04;101526.56;;;2.37;42.38
50105;BME280;47690;39.202;-77.198;2024-02-21T08:54:35;101525.59;;;2.33;42.64
50105;BME280;47690;39.202;-77.198;2024-02-21T08:57:04;101535.69;;;2.31;42.55
50105;BME280;47690;39.202;-77.198;2024-02-21T08:59:35;101527.97;;;2.30;42.66
50105;BME280;47690;39.202;-77.198;2024-02-21T09:02:04;101527.88;;;2.27;42.35
50105;BME280;47690;39.202;-77.198;2024-02-21T09:04:35;101526.06;;;2.24;42.55
50105;BME280;47690;39.202;-77.198;2024-02-21T09:07:05;101522.59;;;2.22;42.68
50105;BME280;47690;39.202;-77.198;2024-02-21T09:09:34;101523.47;;;2.23;42.91
50105;BME280;47690;39.202;-77.198;2024-02-21T09:12:07;101519.25;;;2.23;42.70
50105;BME280;47690;39.202;-77.198;2024-02-21T09:14:37;101519.13;;;2.20;42.64
50105;BME280;47690;39.202;-77.198;2024-02-21T09:17:09;101526.94;;;2.25;42.79
50105;BME280;47690;39.202;-77.198;2024-02-21T09:19:37;101529.44;;;2.23;42.84
50105;BME280;47690;39.202;-77.198;2024-02-21T09:22:06;101525.94;;;2.21;42.60
50105;BME280;47690;39.202;-77.198;2024-02-21T09:24:36;101535.25;;;2.21;42.90
50105;BME280;47690;39.202;-77.198;2024-02-21T09:27:04;101541.19;;;2.21;42.77
50105;BME280;47690;39.202;-77.198;2024-02-21T09:29:34;101540.19;;;2.17;42.32
50105;BME280;47690;39.202;-77.198;2024-02-21T09:32:04;101546.66;;;2.09;42.74
50105;BME280;47690;39.202;-77.198;2024-02-21T09:34:34;101547.19;;;2.02;42.29
50105;BME280;47690;39.202;-77.198;2024-02-21T09:37:04;101542.00;;;1.99;42.73
50105;BME280;47690;39.202;-77.198;2024-02-21T09:39:34;101547.09;;;1.99;42.73
50105;BME280;47690;39.202;-77.198;2024-02-21T09:42:11;101555.38;;;1.95;42.97
50105;BME280;47690;39.202;-77.198;2024-02-21T09:44:39;101553.38;;;1.87;42.53
50105;BME280;47690;39.202;-77.198;2024-02-21T09:49:45;101561.09;;;1.89;43.14
50105;BME280;47690;39.202;-77.198;2024-02-21T09:52:15;101558.53;;;1.89;43.14
50105;BME280;47690;39.202;-77.198;2024-02-21T09:54:47;101567.97;;;1.91;42.99
50105;BME280;47690;39.202;-77.198;2024-02-21T09:57:17;101563.69;;;1.90;42.86
50105;BME280;47690;39.202;-77.198;2024-02-21T09:59:45;101568.72;;;1.89;43.09
50105;BME280;47690;39.202;-77.198;2024-02-21T10:02:15;101571.94;;;1.85;43.16
50105;BME280;47690;39.202;-77.198;2024-02-21T10:04:43;101569.41;;;1.85;43.04
50105;BME280;47690;39.202;-77.198;2024-02-21T10:07:12;101571.94;;;1.85;42.77
50105;BME280;47690;39.202;-77.198;2024-02-21T10:09:41;101573.72;;;1.87;42.79
50105;BME280;47690;39.202;-77.198;2024-02-21T10:12:13;101578.75;;;1.86;43.17
50105;BME280;47690;39.202;-77.198;2024-02-21T10:14:42;101578.75;;;1.86;42.97
50105;BME280;47690;39.202;-77.198;2024-02-21T10:17:16;101577.88;;;1.85;43.16
50105;BME280;47690;39.202;-77.198;2024-02-21T10:19:49;101577.78;;;1.84;42.91
50105;BME280;47690;39.202;-77.198;2024-02-21T10:22:18;101582.84;;;1.82;42.76
50105;BME280;47690;39.202;-77.198;2024-02-21T10:24:49;101578.50;;;1.80;42.95
50105;BME280;47690;39.202;-77.198;2024-02-21T10:27:17;101582.69;;;1.79;42.81
50105;BME280;47690;39.202;-77.198;2024-02-21T10:29:49;101581.69;;;1.75;43.15
50105;BME280;47690;39.202;-77.198;2024-02-21T10:32:21;101579.97;;;1.74;42.80
50105;BME280;47690;39.202;-77.198;2024-02-21T10:35:01;101576.50;;;1.72;43.17
50105;BME280;47690;39.202;-77.198;2024-02-21T10:37:34;101573.81;;;1.69;42.74
50105;BME280;47690;39.202;-77.198;2024-02-21T10:40:05;101571.13;;;1.66;43.11
50105;BME280;47690;39.202;-77.198;2024-02-21T10:42:36;101581.19;;;1.63;42.98
50105;BME280;47690;39.202;-77.198;2024-02-21T10:45:07;101579.38;;;1.60;42.73
50105;BME280;47690;39.202;-77.198;2024-02-21T10:47:39;101577.56;;;1.58;42.62
50105;BME280;47690;39.202;-77.198;2024-02-21T10:50:11;101587.56;;;1.55;43.07
50105;BME280;47690;39.202;-77.198;2024-02-21T10:52:55;101587.44;;;1.52;43.10
50105;BME280;47690;39.202;-77.198;2024-02-21T10:55:38;101584.78;;;1.48;43.12
50105;BME280;47690;39.202;-77.198;2024-02-21T10:58:09;101589.66;;;1.44;42.89
50105;BME280;47690;39.202;-77.198;2024-02-21T11:00:39;101597.06;;;1.39;43.27
50105;BME280;47690;39.202;-77.198;2024-02-21T11:03:09;101597.66;;;1.33;43.31
50105;BME280;47690;39.202;-77.198;2024-02-21T11:05:37;101605.06;;;1.29;43.10
50105;BME280;47690;39.202;-77.198;2024-02-21T11:08:09;101597.47;;;1.29;43.48
50105;BME280;47690;39.202;-77.198;2024-02-21T11:10:38;101597.59;;;1.32;43.22
50105;BME280;47690;39.202;-77.198;2024-02-21T11:13:09;101602.00;;;1.36;43.30
50105;BME280;47690;39.202;-77.198;2024-02-21T11:15:38;101601.34;;;1.40;43.37
50105;BME280;47690;39.202;-77.198;2024-02-21T11:18:09;101605.69;;;1.43;43.47
50105;BME280;47690;39.202;-77.198;2024-02-21T11:20:38;101603.16;;;1.43;43.29
50105;BME280;47690;39.202;-77.198;2024-02-21T11:23:07;101599.78;;;1.44;43.11
50105;BME280;47690;39.202;-77.198;2024-02-21T11:25:36;101602.28;;;1.42;43.43
50105;BME280;47690;39.202;-77.198;2024-02-21T11:28:08;101607.22;;;1.39;43.32
50105;BME280;47690;39.202;-77.198;2024-02-21T11:30:40;101601.13;;;1.35;43.21
50105;BME280;47690;39.202;-77.198;2024-02-21T11:33:12;101605.28;;;1.33;43.58
50105;BME280;47690;39.202;-77.198;2024-02-21T11:35:43;101601.00;;;1.32;43.19
50105;BME280;47690;39.202;-77.198;2024-02-21T11:38:12;101604.34;;;1.31;43.26
50105;BME280;47690;39.202;-77.198;2024-02-21T11:40:46;101601.75;;;1.30;43.19
50105;BME280;47690;39.202;-77.198;2024-02-21T11:43:16;101602.53;;;1.29;43.20
50105;BME280;47690;39.202;-77.198;2024-02-21T11:45:45;101602.41;;;1.26;43.13
50105;BME280;47690;39.202;-77.198;2024-02-21T11:48:14;101601.47;;;1.23;43.07
50105;BME280;47690;39.202;-77.198;2024-02-21T11:50:53;101603.16;;;1.23;43.47
50105;BME280;47690;39.202;-77.198;2024-02-21T11:53:23;101597.06;;;1.19;43.33
50105;BME280;47690;39.202;-77.198;2024-02-21T11:55:51;101591.09;;;1.19;43.17
50105;BME280;47690;39.202;-77.198;2024-02-21T11:58:20;101593.63;;;1.19;43.11
50105;BME280;47690;39.202;-77.198;2024-02-21T12:00:49;101593.63;;;1.19;43.18
50105;BME280;47690;39.202;-77.198;2024-02-21T12:03:17;101590.97;;;1.16;43.48
50105;BME280;47690;39.202;-77.198;2024-02-21T12:05:46;101591.81;;;1.16;43.49
50105;BME280;47690;39.202;-77.198;2024-02-21T12:08:15;101597.78;;;1.17;43.45
50105;BME280;47690;39.202;-77.198;2024-02-21T12:10:44;101593.44;;;1.14;43.29
50105;BME280;47690;39.202;-77.198;2024-02-21T12:13:22;101597.59;;;1.12;43.10
50105;BME280;47690;39.202;-77.198;2024-02-21T12:15:52;101606.00;;;1.11;43.07
50105;BME280;47690;39.202;-77.198;2024-02-21T12:18:21;101603.47;;;1.11;43.62
50105;BME280;47690;39.202;-77.198;2024-02-21T12:20:50;101595.03;;;1.12;43.19
50105;BME280;47690;39.202;-77.198;2024-02-21T12:23:19;101600.16;;;1.14;43.62
50105;BME280;47690;39.202;-77.198;2024-02-21T12:25:47;101606.19;;;1.16;43.35
50105;BME280;47690;39.202;-77.198;2024-02-21T12:28:16;101607.13;;;1.18;43.42
50105;BME280;47690;39.202;-77.198;2024-02-21T12:30:45;101601.47;;;1.23;43.74
50105;BME280;47690;39.202;-77.198;2024-02-21T12:33:14;101607.50;;;1.26;43.42
50105;BME280;47690;39.202;-77.198;2024-02-21T12:35:43;101599.13;;;1.28;43.63
50105;BME280;47690;39.202;-77.198;2024-02-21T12:38:12;101597.38;;;1.27;42.95
50105;BME280;47690;39.202;-77.198;2024-02-21T12:40:41;101597.66;;;1.33;43.55
50105;BME280;47690;39.202;-77.198;2024-02-21T12:43:10;101592.19;;;1.44;43.59
50105;BME280;47690;39.202;-77.198;2024-02-21T12:45:39;101591.34;;;1.63;43.28
50105;BME280;47690;39.202;-77.198;2024-02-21T12:48:07;101594.66;;;1.82;43.04
50105;BME280;47690;39.202;-77.198;2024-02-21T12:50:36;101598.00;;;2.00;43.22
50105;BME280;47690;39.202;-77.198;2024-02-21T12:53:04;101597.81;;;2.17;43.16
50105;BME280;47690;39.202;-77.198;2024-02-21T12:55:43;101595.97;;;2.34;43.54
50105;BME280;47690;39.202;-77.198;2024-02-21T12:58:12;101595.69;;;2.49;43.48